Time;durP1;ratioP1;P1;durP2;ratioP2;P2;SDS_P1;SDS_P2;PMS_P1;PMS_P2;Temp;Humidity;BMP_temperature;BMP_pressure;BME280_temperature;BME280_humidity;BME280_pressure;Samples;Min_cycle;Max_cycle;Signal;HPM_P1;HPM_P2
2022/06/01 00:01:30;;;;;;;21.00;8.10;;;;;;;20.48;65.70;99358.99;25117;1313;3057909;-66
2022/06/01 00:03:59;;;;;;;25.90;6.40;;;;;;;20.43;66.09;99360.94;25182;1312;3030059;-65
2022/06/01 00:06:29;;;;;;;24.30;6.30;;;;;;;21.01;64.98;99362.57;25090;1313;3028855;-66
2022/06/01 00:08:58;;;;;;;29.10;8.60;;;;;;;21.57;63.23;99366.08;25137;1312;3026491;-65
2022/06/01 00:11:28;;;;;;;24.30;8.20;;;;;;;21.55;62.96;99365.15;25115;1313;3049263;-66
2022/06/01 00:13:57;;;;;;;20.20;7.70;;;;;;;21.45;62.94;99366.46;25075;1312;3026616;-65
2022/06/01 00:16:26;;;;;;;28.30;8.20;;;;;;;21.27;63.21;99361.63;25139;1313;3056102;-65
2022/06/01 00:18:55;;;;;;;25.70;7.20;;;;;;;21.04;63.66;99357.08;25067;1313;3026438;-65
2022/06/01 00:21:25;;;;;;;24.40;7.30;;;;;;;20.82;63.96;99352.05;25143;1313;3054033;-66
2022/06/01 00:23:54;;;;;;;19.60;8.00;;;;;;;20.67;64.25;99355.45;25122;1313;3026938;-65
2022/06/01 00:26:23;;;;;;;29.00;8.10;;;;;;;20.54;64.12;99356.95;25096;1312;3052058;-66
2022/06/01 00:28:52;;;;;;;23.20;7.50;;;;;;;20.48;63.93;99352.99;25101;1312;3026533;-65
2022/06/01 00:31:21;;;;;;;28.60;8.00;;;;;;;20.39;64.35;99349.02;25110;1312;3048230;-66
2022/06/01 00:33:50;;;;;;;23.30;8.50;;;;;;;20.30;64.56;99345.34;25112;1312;3028384;-65
2022/06/01 00:36:19;;;;;;;23.30;7.50;;;;;;;20.25;64.50;99346.08;25124;1313;3070166;-66
2022/06/01 00:38:48;;;;;;;23.80;9.10;;;;;;;20.20;64.79;99347.30;25105;1312;3027946;-66
2022/06/01 00:41:18;;;;;;;20.90;4.70;;;;;;;20.18;64.77;99342.84;25070;1313;3049826;-66
2022/06/01 00:43:48;;;;;;;23.20;5.80;;;;;;;20.72;64.31;99340.35;25103;1312;3027479;-66
2022/06/01 00:46:17;;;;;;;19.30;5.90;;;;;;;21.25;62.68;99340.75;25106;1313;3028889;-66
2022/06/01 00:48:47;;;;;;;25.70;5.70;;;;;;;21.32;62.43;99339.16;25123;1313;3050704;-66
2022/06/01 00:51:19;;;;;;;17.70;6.50;;;;;;;21.23;62.34;99341.05;25037;1316;3027292;-66
2022/06/01 00:53:48;;;;;;;21.50;6.40;;;;;;;21.03;62.47;99338.85;25148;1316;3029695;-66
2022/06/01 00:56:22;;;;;;;25.70;7.10;;;;;;;20.86;62.79;99336.41;25126;1312;3026499;-66
2022/06/01 00:58:51;;;;;;;21.10;7.60;;;;;;;20.63;63.48;99338.56;25163;1313;3027043;-66
2022/06/01 01:01:20;;;;;;;39.10;7.90;;;;;;;20.43;64.32;99331.95;25108;1313;3026451;-66
2022/06/01 01:03:56;;;;;;;33.60;7.70;;;;;;;20.29;64.58;99332.17;25122;1313;3053781;-65
2022/06/01 01:06:30;;;;;;;21.80;7.70;;;;;;;20.20;64.60;99335.55;25100;1313;3051527;-65
2022/06/01 01:08:59;;;;;;;25.90;7.40;;;;;;;20.09;64.96;99337.24;25109;1313;3056218;-66
2022/06/01 01:11:39;;;;;;;26.80;7.80;;;;;;;20.01;65.26;99329.01;25086;1313;3027202;-65
2022/06/01 01:14:08;;;;;;;19.10;5.40;;;;;;;19.96;65.49;99321.13;25100;1315;3054987;-65
2022/06/01 01:16:37;;;;;;;19.80;5.60;;;;;;;20.55;64.63;99312.90;25105;1315;3026592;-66
2022/06/01 01:19:16;;;;;;;19.50;5.10;;;;;;;21.13;62.86;99326.88;25119;1315;3052211;-66
2022/06/01 01:22:10;;;;;;;21.40;5.90;;;;;;;21.21;62.12;99333.04;25020;1315;3052429;-66
2022/06/01 01:25:07;;;;;;;20.00;5.90;;;;;;;21.05;62.14;99322.47;25142;1312;3059715;-66
2022/06/01 01:27:37;;;;;;;16.90;6.00;;;;;;;20.76;62.87;99318.55;25147;1315;3049562;-66
2022/06/01 01:30:34;;;;;;;26.00;7.20;;;;;;;20.55;63.63;99316.42;25099;1313;3028450;-65
2022/06/01 01:33:04;;;;;;;21.50;7.10;;;;;;;20.34;64.48;99321.67;25120;1315;3056161;-66
2022/06/01 01:35:33;;;;;;;26.50;6.60;;;;;;;20.21;64.55;99324.75;25100;1312;3026655;-65
2022/06/01 01:38:06;;;;;;;24.00;7.60;;;;;;;20.12;64.33;99318.40;25153;1313;3026658;-65
2022/06/01 01:40:35;;;;;;;28.30;6.70;;;;;;;20.05;64.61;99315.70;25060;1313;3055553;-66
2022/06/01 01:43:07;;;;;;;20.40;6.00;;;;;;;19.94;64.95;99319.32;25090;1313;3026307;-66
2022/06/01 01:45:37;;;;;;;16.70;5.90;;;;;;;19.90;64.92;99320.47;25032;1315;3028974;-65
2022/06/01 01:48:07;;;;;;;20.60;4.80;;;;;;;19.87;65.32;99323.05;25044;1315;3026431;-66
2022/06/01 01:50:37;;;;;;;13.40;4.30;;;;;;;20.42;64.71;99319.04;25042;1314;3026266;-66
2022/06/01 01:53:06;;;;;;;24.30;6.60;;;;;;;20.99;63.19;99314.54;25148;1314;3026527;-66
2022/06/01 01:55:46;;;;;;;18.30;5.50;;;;;;;20.98;62.82;99315.94;25113;1315;3050403;-67
2022/06/01 01:58:52;;;;;;;22.50;6.60;;;;;;;20.78;63.26;99320.80;25151;1313;3069624;-66
2022/06/01 02:01:40;;;;;;;22.40;6.40;;;;;;;20.47;64.03;99320.82;25100;1315;3051479;-66
2022/06/01 02:07:31;;;;;;;26.20;6.70;;;;;;;19.89;65.87;99317.89;25060;1314;3056070;-65
2022/06/01 02:12:49;;;;;;;23.20;6.50;;;;;;;19.83;65.76;99328.85;25145;1315;3052406;-66
2022/06/01 02:15:23;;;;;;;20.00;6.90;;;;;;;19.80;65.27;99328.71;25040;1315;3028217;-66
2022/06/01 02:17:54;;;;;;;25.10;6.60;;;;;;;19.81;65.09;99326.91;25111;1315;3026760;-66
2022/06/01 02:20:28;;;;;;;20.80;6.30;;;;;;;19.83;64.85;99332.80;24389;1315;4541037;-65
2022/06/01 02:23:00;;;;;;;20.30;5.40;;;;;;;19.82;65.44;99338.37;25040;1315;3051864;-65
2022/06/01 02:25:29;;;;;;;25.10;5.70;;;;;;;20.41;64.79;99337.67;25051;1315;3026381;-66
2022/06/01 02:27:58;;;;;;;22.30;6.10;;;;;;;20.92;63.24;99328.65;25093;1315;3026317;-66
2022/06/01 02:30:33;;;;;;;23.40;6.20;;;;;;;21.06;62.86;99325.33;25152;1315;3050785;-66
2022/06/01 02:33:03;;;;;;;19.00;5.70;;;;;;;21.05;62.15;99334.21;25115;1315;3051294;-66
2022/06/01 02:35:36;;;;;;;24.60;5.90;;;;;;;20.92;61.63;99342.23;25137;1315;3028380;-66
2022/06/01 02:38:10;;;;;;;19.70;6.10;;;;;;;20.68;62.18;99341.04;25161;1315;3026970;-66
2022/06/01 02:40:39;;;;;;;;;;;;;;;20.53;62.84;99330.23;25161;1315;3050240;-66
2022/06/01 02:43:08;;;;;;;25.20;5.70;;;;;;;20.38;63.60;99331.80;25081;1315;3028063;-65
2022/06/01 02:45:37;;;;;;;15.60;5.40;;;;;;;20.34;63.29;99334.27;25141;1315;3058293;-65
2022/06/01 02:48:06;;;;;;;28.90;6.10;;;;;;;20.35;63.04;99343.63;25081;1315;3026494;-65
2022/06/01 02:50:35;;;;;;;29.00;6.80;;;;;;;20.34;62.93;99337.68;25101;1315;3054567;-66
2022/06/01 02:53:09;;;;;;;20.40;6.60;;;;;;;20.33;62.94;99336.02;25077;1313;3056715;-66
2022/06/01 02:55:38;;;;;;;21.50;6.00;;;;;;;20.31;62.71;99337.27;25123;1315;3026556;-65
2022/06/01 02:58:07;;;;;;;18.60;5.50;;;;;;;20.29;62.71;99341.20;25100;1315;3054301;-66
2022/06/01 03:00:38;;;;;;;20.80;6.80;;;;;;;20.28;62.91;99344.61;25109;1315;3027642;-66
2022/06/01 03:03:08;;;;;;;20.70;5.90;;;;;;;20.31;62.72;99344.36;25156;1315;3051836;-65
2022/06/01 03:05:39;;;;;;;18.80;6.40;;;;;;;20.32;62.92;99341.23;25142;1313;3028787;-66
2022/06/01 03:08:08;;;;;;;22.40;6.00;;;;;;;20.32;63.22;99337.53;25081;1315;3026160;-65
2022/06/01 03:10:38;;;;;;;19.40;6.10;;;;;;;20.35;62.98;99342.58;25086;1315;3026143;-66
2022/06/01 03:13:07;;;;;;;26.60;6.90;;;;;;;20.34;63.07;99349.73;25088;1315;3054469;-65
2022/06/01 03:15:36;;;;;;;20.70;6.60;;;;;;;20.35;62.94;99351.44;25134;1315;3028591;-66
2022/06/01 03:18:06;;;;;;;24.20;7.00;;;;;;;20.36;63.27;99344.20;25088;1315;3053847;-66
2022/06/01 03:20:36;;;;;;;18.00;6.20;;;;;;;20.39;63.22;99342.67;25063;1315;3028665;-66
2022/06/01 03:23:06;;;;;;;21.80;6.60;;;;;;;20.41;63.32;99343.55;25153;1314;3049391;-65
2022/06/01 03:25:37;;;;;;;22.90;7.20;;;;;;;20.40;63.55;99350.39;25139;1315;3026757;-65
2022/06/01 03:28:07;;;;;;;25.80;7.20;;;;;;;20.40;63.56;99345.36;25105;1315;3069228;-65
2022/06/01 03:30:36;;;;;;;22.00;5.60;;;;;;;20.47;63.49;99342.17;25130;1315;3026501;-66
2022/06/01 03:33:05;;;;;;;29.60;6.00;;;;;;;21.09;62.20;99349.11;25178;1314;3028450;-65
2022/06/01 03:35:37;;;;;;;17.10;5.40;;;;;;;21.63;60.68;99351.85;25134;1315;3028144;-65
2022/06/01 03:38:06;;;;;;;17.60;5.60;;;;;;;21.76;60.19;99344.27;25103;1315;3026814;-66
2022/06/01 03:40:37;;;;;;;18.60;6.20;;;;;;;21.74;60.23;99342.66;25117;1315;3026478;-66
2022/06/01 03:43:07;;;;;;;23.30;6.50;;;;;;;21.64;60.27;99343.87;25121;1315;3027267;-66
2022/06/01 03:45:55;;;;;;;22.30;6.70;;;;;;;21.47;60.44;99342.69;25144;1315;3027198;-66
2022/06/01 03:48:29;;;;;;;21.70;6.30;;;;;;;21.32;60.90;99343.73;25078;1315;3071794;-65
2022/06/01 03:50:59;;;;;;;21.10;6.00;;;;;;;21.26;61.06;99340.95;25094;1315;3049146;-66
2022/06/01 03:53:29;;;;;;;23.80;6.80;;;;;;;21.23;60.89;99341.89;25082;1315;3030844;-65
2022/06/01 03:55:58;;;;;;;19.80;6.00;;;;;;;21.18;60.95;99343.08;25089;1313;3069597;-65
2022/06/01 03:58:27;;;;;;;26.10;7.00;;;;;;;21.11;61.36;99345.81;25111;1313;3027049;-65
2022/06/01 04:00:56;;;;;;;30.70;6.90;;;;;;;21.05;61.84;99341.11;25147;1315;3055480;-66
2022/06/01 04:03:26;;;;;;;25.90;8.60;;;;;;;21.05;62.31;99340.59;25016;1315;3027920;-66
2022/06/01 04:05:55;;;;;;;30.50;8.80;;;;;;;20.93;63.18;99336.92;25166;1315;3027265;-65
2022/06/01 04:08:25;;;;;;;25.00;9.00;;;;;;;20.86;63.55;99338.12;25135;1315;3026433;-65
2022/06/01 04:10:54;;;;;;;26.50;8.40;;;;;;;20.87;63.12;99340.34;25141;1313;3026945;-66
2022/06/01 04:13:24;;;;;;;23.20;8.40;;;;;;;20.83;63.12;99342.08;25039;1315;3026694;-66
2022/06/01 04:15:54;;;;;;;24.50;8.20;;;;;;;20.76;63.40;99340.82;25126;1313;3054915;-66
2022/06/01 04:18:23;;;;;;;23.70;8.20;;;;;;;20.71;63.56;99342.69;25148;1314;3027132;-65
2022/06/01 04:20:52;;;;;;;25.20;8.10;;;;;;;20.73;63.42;99344.28;25102;1313;3027699;-65
2022/06/01 04:23:22;;;;;;;26.10;9.20;;;;;;;20.79;63.07;99346.52;25056;1315;3053874;-66
2022/06/01 04:25:51;;;;;;;33.30;8.20;;;;;;;20.86;62.97;99345.41;25149;1313;3026823;-65
2022/06/01 04:28:20;;;;;;;26.40;8.00;;;;;;;20.88;63.34;99346.33;25445;1313;3026620;-65
2022/06/01 04:30:49;;;;;;;27.60;8.00;;;;;;;20.90;63.04;99346.39;25397;1313;3052110;-65
2022/06/01 04:33:19;;;;;;;26.20;8.90;;;;;;;20.95;63.13;99345.71;25399;1314;3028525;-65
2022/06/01 04:35:48;;;;;;;22.70;7.80;;;;;;;21.01;62.79;99347.92;25167;1315;3027218;-65
2022/06/01 04:38:18;;;;;;;28.30;8.70;;;;;;;21.09;62.52;99351.36;25170;1313;3026465;-66
2022/06/01 04:40:50;;;;;;;34.30;9.00;;;;;;;21.11;62.64;99353.66;25103;1315;3050794;-65
2022/06/01 04:43:21;;;;;;;20.90;7.70;;;;;;;21.15;62.46;99353.66;25119;1314;3059063;-65
2022/06/01 04:45:51;;;;;;;28.70;8.60;;;;;;;21.20;62.27;99354.84;25117;1315;3028796;-66
2022/06/01 04:48:20;;;;;;;34.60;9.60;;;;;;;21.21;62.26;99354.41;25138;1315;3027774;-65
2022/06/01 04:50:50;;;;;;;32.80;8.50;;;;;;;21.30;61.82;99359.46;25076;1313;3027490;-66
2022/06/01 04:53:19;;;;;;;32.90;9.40;;;;;;;21.39;61.53;99359.77;25048;1313;3026895;-66
2022/06/01 04:55:48;;;;;;;48.00;11.40;;;;;;;21.45;61.34;99362.31;25092;1313;3026338;-66
2022/06/01 04:58:17;;;;;;;41.70;13.60;;;;;;;21.46;61.24;99356.51;25049;1313;3053302;-65
2022/06/01 05:00:46;;;;;;;40.20;13.50;;;;;;;21.53;60.89;99357.03;25050;1313;3027663;-66
2022/06/01 05:03:15;;;;;;;46.40;14.80;;;;;;;21.63;60.64;99360.95;25130;1313;3052717;-66
2022/06/01 05:05:46;;;;;;;53.20;14.40;;;;;;;21.63;60.94;99363.32;25078;1315;3026830;-66
2022/06/01 05:08:15;;;;;;;41.30;14.30;;;;;;;21.67;61.28;99364.32;25021;1314;3026836;-66
2022/06/01 05:10:44;;;;;;;40.50;15.40;;;;;;;21.81;61.17;99360.45;25137;1313;3026700;-67
2022/06/01 05:13:18;;;;;;;52.50;16.70;;;;;;;21.95;60.62;99359.77;25137;1316;3050380;-66
2022/06/01 05:15:53;;;;;;;42.10;16.90;;;;;;;22.10;59.82;99365.33;25106;1313;3026668;-66
2022/06/01 05:18:22;;;;;;;49.80;17.70;;;;;;;22.20;59.50;99364.73;25146;1313;3049098;-65
2022/06/01 05:20:54;;;;;;;49.50;19.40;;;;;;;22.33;59.23;99368.65;25174;1313;3028613;-65
2022/06/01 05:23:23;;;;;;;55.80;19.50;;;;;;;22.45;59.07;99364.04;25137;1315;3069602;-66
2022/06/01 05:25:53;;;;;;;43.80;19.50;;;;;;;22.59;58.61;99368.38;25164;1313;3026576;-66
2022/06/01 05:28:25;;;;;;;55.10;20.90;;;;;;;22.70;57.91;99375.63;25082;1315;3027328;-66
2022/06/01 05:30:58;;;;;;;64.60;22.10;;;;;;;22.83;57.74;99368.31;25078;1313;3027310;-66
2022/06/01 05:33:27;;;;;;;53.00;21.80;;;;;;;22.89;57.69;99372.55;25111;1315;3056392;-65
2022/06/01 05:35:56;;;;;;;48.00;18.00;;;;;;;22.98;57.66;99374.80;25114;1313;3027676;-66
2022/06/01 05:38:25;;;;;;;39.40;14.40;;;;;;;23.07;57.97;99377.61;25152;1315;3054165;-66
2022/06/01 05:40:54;;;;;;;44.10;11.60;;;;;;;23.15;58.09;99377.09;25100;1315;3026649;-65
2022/06/01 05:43:24;;;;;;;49.40;12.10;;;;;;;23.24;58.11;99379.46;25089;1315;3026377;-65
2022/06/01 05:45:55;;;;;;;36.80;11.90;;;;;;;23.31;58.03;99376.00;25047;1315;3026723;-65
2022/06/01 05:48:24;;;;;;;45.90;11.20;;;;;;;23.41;57.45;99375.52;25106;1315;3026467;-66
2022/06/01 05:50:53;;;;;;;37.80;11.40;;;;;;;23.47;57.00;99375.82;25078;1313;3030115;-65
2022/06/01 05:53:22;;;;;;;40.30;10.90;;;;;;;23.55;56.53;99374.27;25105;1313;3054692;-66
2022/06/01 05:55:52;;;;;;;33.00;10.90;;;;;;;23.70;55.84;99374.73;25045;1315;3026184;-66
2022/06/01 05:58:22;;;;;;;37.40;10.80;;;;;;;23.80;54.90;99377.05;25105;1313;3048723;-66
2022/06/01 06:00:52;;;;;;;32.90;9.00;;;;;;;23.89;53.09;99372.98;25076;1313;3027190;-66
2022/06/01 06:03:23;;;;;;;38.90;10.10;;;;;;;24.01;52.26;99376.83;25079;1315;3028532;-65
2022/06/01 06:06:12;;;;;;;40.20;10.20;;;;;;;24.10;52.53;99375.77;25070;1313;3026312;-66
2022/06/01 06:08:47;;;;;;;38.20;10.30;;;;;;;24.12;52.58;99373.19;25094;1313;3051903;-65
2022/06/01 06:11:16;;;;;;;32.00;9.50;;;;;;;24.16;52.15;99371.24;25112;1313;3053621;-66
2022/06/01 06:13:46;;;;;;;45.60;11.60;;;;;;;24.20;51.85;99366.85;25072;1313;3026344;-65
2022/06/01 06:16:15;;;;;;;28.00;9.40;;;;;;;24.24;50.95;99365.16;25144;1313;3026875;-66
2022/06/01 06:18:45;;;;;;;28.30;9.50;;;;;;;24.27;50.70;99368.50;25081;1315;3052964;-65
2022/06/01 06:21:15;;;;;;;38.80;9.80;;;;;;;24.38;50.38;99368.09;25103;1313;3026650;-66
2022/06/01 06:23:44;;;;;;;35.20;9.20;;;;;;;24.40;50.06;99371.48;25095;1315;3028320;-65
2022/06/01 06:26:13;;;;;;;42.40;10.70;;;;;;;24.49;50.14;99372.36;25067;1313;3026242;-65
2022/06/01 06:28:44;;;;;;;37.00;9.60;;;;;;;24.63;50.19;99367.85;25097;1315;3054356;-65
2022/06/01 06:31:13;;;;;;;28.80;9.80;;;;;;;24.75;50.01;99370.96;25052;1315;3027093;-66
2022/06/01 06:33:43;;;;;;;28.90;9.10;;;;;;;24.89;49.57;99371.86;25076;1315;3027215;-65
2022/06/01 06:36:14;;;;;;;39.20;9.40;;;;;;;25.02;49.33;99365.43;25078;1315;3026505;-65
2022/06/01 06:38:43;;;;;;;36.60;7.60;;;;;;;25.11;48.93;99369.91;25092;1313;3056680;-65
2022/06/01 06:41:12;;;;;;;27.90;9.10;;;;;;;25.11;48.61;99371.48;25095;1315;3026745;-65
2022/06/01 06:43:43;;;;;;;39.70;9.00;;;;;;;25.13;48.93;99370.27;25134;1315;3055685;-65
2022/06/01 06:46:14;;;;;;;36.30;10.30;;;;;;;25.10;48.67;99369.61;25072;1314;3030317;-65
2022/06/01 06:48:44;;;;;;;39.50;10.50;;;;;;;25.00;48.72;99363.70;25065;1314;3026813;-65
2022/06/01 06:51:13;;;;;;;62.20;12.10;;;;;;;24.96;48.96;99363.77;25097;1313;3026881;-66
2022/06/01 06:53:42;;;;;;;47.70;13.90;;;;;;;24.80;49.39;99363.95;25135;1313;3026789;-65
2022/06/01 06:56:13;;;;;;;46.00;12.90;;;;;;;24.82;49.74;99360.30;25143;1313;3049986;-66
2022/06/01 06:58:42;;;;;;;50.30;12.50;;;;;;;24.92;49.66;99359.45;25097;1315;3026783;-65
2022/06/01 07:01:11;;;;;;;39.10;11.60;;;;;;;25.05;49.49;99360.50;25054;1313;3026792;-65
2022/06/01 07:03:40;;;;;;;39.50;13.30;;;;;;;25.17;49.33;99358.39;25116;1313;3026728;-65
2022/06/01 07:06:10;;;;;;;39.60;12.60;;;;;;;25.27;49.14;99356.80;25062;1315;3053808;-65
2022/06/01 07:08:42;;;;;;;47.60;11.60;;;;;;;25.34;48.90;99361.48;25020;1313;3026484;-65
2022/06/01 07:11:12;;;;;;;32.20;12.00;;;;;;;25.40;48.68;99363.05;25100;1315;3026999;-66
2022/06/01 07:13:42;;;;;;;39.50;11.50;;;;;;;25.45;48.72;99362.63;25110;1315;3027029;-66
2022/06/01 07:16:27;;;;;;;41.80;12.10;;;;;;;25.49;48.42;99364.33;25218;1314;3026099;-65
2022/06/01 07:18:58;;;;;;;34.90;10.90;;;;;;;25.58;48.34;99362.84;25170;1312;3053465;-65
2022/06/01 07:21:28;;;;;;;37.00;10.80;;;;;;;25.70;48.00;99355.77;25158;1312;3026180;-65
2022/06/01 07:23:57;;;;;;;33.20;10.10;;;;;;;25.82;48.02;99360.10;25138;1315;3026820;-65
2022/06/01 07:26:34;;;;;;;48.90;10.30;;;;;;;26.01;47.61;99355.58;25217;1314;3026139;-65
2022/06/01 07:29:04;;;;;;;37.00;10.00;;;;;;;26.14;46.82;99350.00;25109;1314;3055413;-65
2022/06/01 07:31:33;;;;;;;36.90;10.30;;;;;;;26.24;47.19;99353.05;25055;1315;3026343;-65
2022/06/01 07:34:03;;;;;;;35.70;10.80;;;;;;;26.29;46.54;99353.08;25125;1315;3026966;-65
2022/06/01 07:36:32;;;;;;;42.20;11.00;;;;;;;26.38;46.53;99353.00;25139;1315;3058306;-65
2022/06/01 07:44:50;;;;;;;31.20;9.30;;;;;;;26.67;45.54;99351.69;25048;1315;3054129;-66
2022/06/01 07:47:19;;;;;;;33.40;9.70;;;;;;;26.81;44.99;99356.91;25060;1314;3026464;-62
2022/06/01 07:49:49;;;;;;;27.30;10.50;;;;;;;26.89;44.67;99354.65;25087;1315;3026332;-62
2022/06/01 07:52:18;;;;;;;35.20;9.90;;;;;;;26.58;44.52;99356.08;25120;1313;3026675;-62
2022/06/01 07:54:52;;;;;;;40.00;9.50;;;;;;;26.64;45.11;99352.95;25032;1315;3071062;-63
2022/06/01 07:57:22;;;;;;;35.90;9.70;;;;;;;26.73;45.01;99354.80;25114;1313;3048854;-63
2022/06/01 07:59:51;;;;;;;38.90;9.50;;;;;;;26.84;44.66;99351.37;25082;1312;3026891;-60
2022/06/01 08:02:20;;;;;;;28.50;9.90;;;;;;;26.95;44.09;99351.03;25096;1313;3070801;-63
2022/06/01 08:04:49;;;;;;;33.10;11.10;;;;;;;27.10;43.69;99353.19;25082;1315;3026426;-63
2022/06/01 08:07:22;;;;;;;37.50;11.50;;;;;;;27.20;43.07;99351.78;25060;1313;3052026;-63
2022/06/01 08:09:51;;;;;;;38.60;11.60;;;;;;;27.37;42.61;99347.98;25111;1314;3026858;-65
2022/06/01 08:15:10;;;;;;;41.00;12.70;;;;;;;27.16;42.33;99346.27;25108;1315;3055232;-64
2022/06/01 08:17:41;;;;;;;31.50;11.10;;;;;;;27.19;42.68;99349.42;25016;1313;3026063;-63
2022/06/01 08:20:14;;;;;;;38.60;11.20;;;;;;;27.29;42.78;99345.09;25158;1313;3026878;-63
2022/06/01 08:22:43;;;;;;;52.90;12.60;;;;;;;27.46;42.57;99342.02;25043;1313;3027774;-64
2022/06/01 08:25:16;;;;;;;38.30;12.30;;;;;;;27.55;42.03;99339.77;25064;1315;3026775;-63
2022/06/01 08:27:45;;;;;;;48.60;12.20;;;;;;;27.70;41.70;99342.57;25075;1313;3026205;-63
2022/06/01 08:30:15;;;;;;;40.40;12.30;;;;;;;27.88;41.62;99342.47;25093;1315;3026735;-62
2022/06/01 08:32:45;;;;;;;38.50;12.00;;;;;;;28.03;41.11;99341.89;25106;1313;3052685;-63
2022/06/01 08:35:16;;;;;;;40.10;12.70;;;;;;;28.09;40.65;99336.41;25123;1315;3026337;-63
2022/06/01 08:37:46;;;;;;;38.70;12.10;;;;;;;28.18;40.83;99338.30;25051;1318;3051606;-64
2022/06/01 08:40:18;;;;;;;43.40;12.10;;;;;;;28.30;40.56;99337.69;25093;1313;3027431;-65
2022/06/01 08:42:55;;;;;;;47.90;13.40;;;;;;;28.39;40.84;99340.06;25057;1313;3026311;-62
2022/06/01 08:45:24;;;;;;;55.10;14.10;;;;;;;28.48;40.71;99340.51;25074;1313;3067851;-63
2022/06/01 08:47:53;;;;;;;32.90;13.20;;;;;;;28.57;40.59;99335.71;25078;1313;3026455;-61
2022/06/01 08:50:28;;;;;;;48.60;14.60;;;;;;;28.72;40.72;99336.23;25141;1313;3026687;-64
2022/06/01 08:52:59;;;;;;;31.00;12.00;;;;;;;28.85;40.78;99329.23;25072;1315;3067621;-62
2022/06/01 08:55:53;;;;;;;44.40;12.30;;;;;;;28.85;41.07;99338.17;25063;1312;3026900;-64
2022/06/01 08:59:04;;;;;;;41.20;12.00;;;;;;;28.87;41.64;99340.48;25092;1315;3054602;-63
2022/06/01 09:01:57;;;;;;;36.80;11.20;;;;;;;29.04;41.06;99336.91;24992;1314;3052413;-65
2022/06/01 09:04:30;;;;;;;49.60;11.30;;;;;;;29.17;41.02;99343.14;25046;1315;3058669;-64
2022/06/01 09:07:22;;;;;;;38.30;10.60;;;;;;;29.32;40.59;99343.20;25220;1315;3026417;-62
2022/06/01 09:10:13;;;;;;;36.70;11.80;;;;;;;29.48;39.90;99343.95;25188;1313;3055641;-61
2022/06/01 09:12:43;;;;;;;38.30;9.70;;;;;;;29.53;39.77;99345.79;25194;1313;3054537;-62
2022/06/01 09:15:21;;;;;;;38.80;10.00;;;;;;;29.57;39.57;99344.69;25127;1315;3028946;-63
2022/06/01 09:17:54;;;;;;;30.50;9.00;;;;;;;29.64;39.26;99347.70;25072;1315;3051608;-65
2022/06/01 09:23:12;;;;;;;43.40;10.00;;;;;;;29.88;38.42;99341.89;25108;1313;3055253;-64
2022/06/01 09:25:53;;;;;;;31.20;9.80;;;;;;;29.92;37.61;99339.48;25080;1313;3028576;-65
2022/06/01 09:28:27;;;;;;;40.70;9.90;;;;;;;30.01;37.99;99342.40;25033;1315;3052888;-63
2022/06/01 09:31:20;;;;;;;32.10;10.00;;;;;;;30.13;37.32;99333.90;25107;1313;3053716;-63
2022/06/01 09:33:49;;;;;;;34.20;9.60;;;;;;;30.14;37.46;99334.39;25027;1315;3052164;-65
2022/06/01 09:36:26;;;;;;;36.70;10.10;;;;;;;30.21;37.88;99337.48;25055;1313;3026743;-62
2022/06/01 09:39:01;;;;;;;27.80;9.50;;;;;;;30.23;38.56;99336.59;25032;1315;3052744;-65
2022/06/01 09:41:36;;;;;;;29.20;9.60;;;;;;;30.36;38.25;99341.29;25083;1316;3054096;-64
2022/06/01 09:44:07;;;;;;;35.30;10.00;;;;;;;30.40;38.46;99339.69;25066;1315;3069089;-62
2022/06/01 09:46:41;;;;;;;43.20;10.10;;;;;;;30.50;38.29;99341.67;25092;1313;3026743;-64
2022/06/01 09:49:22;;;;;;;37.30;9.50;;;;;;;30.63;38.13;99338.25;25059;1313;3028702;-65
2022/06/01 09:51:57;;;;;;;36.10;9.30;;;;;;;30.71;37.38;99340.52;25027;1315;3052127;-63
2022/06/01 09:54:28;;;;;;;32.10;10.00;;;;;;;30.74;37.45;99340.94;25105;1315;3057107;-63
2022/06/01 09:56:57;;;;;;;35.90;9.90;;;;;;;30.81;37.11;99342.47;25029;1315;3026537;-64
2022/06/01 10:08:22;;;;;;;31.80;8.40;;;;;;;31.32;36.34;99349.29;25061;1313;3056139;-64
2022/06/01 10:10:56;;;;;;;30.60;8.90;;;;;;;31.37;35.85;99350.05;25067;1316;3051000;-64
2022/06/01 10:13:34;;;;;;;42.20;10.70;;;;;;;31.43;34.85;99346.53;25006;1313;3068839;-65
2022/06/01 10:16:14;;;;;;;29.10;8.00;;;;;;;31.40;35.18;99349.04;25059;1313;3051700;-63
2022/06/01 10:18:44;;;;;;;39.70;8.70;;;;;;;31.36;35.50;99351.23;25116;1313;3056332;-64
2022/06/01 10:21:14;;;;;;;33.80;9.10;;;;;;;31.42;35.55;99346.38;25068;1315;3026391;-62
2022/06/01 10:23:53;;;;;;;40.30;9.40;;;;;;;31.50;35.39;99348.52;24999;1315;3049218;-63
2022/06/01 10:26:37;;;;;;;39.90;9.90;;;;;;;31.67;35.31;99346.75;25150;1313;3053504;-63
2022/06/01 10:29:08;;;;;;;29.70;9.30;;;;;;;31.81;34.82;99345.88;25037;1315;3053013;-63
2022/06/01 10:31:46;;;;;;;44.10;10.60;;;;;;;31.92;34.50;99348.09;25087;1313;3026713;-64
2022/06/01 10:34:48;;;;;;;24.00;8.40;;;;;;;31.96;33.97;99348.18;25071;1315;3051307;-63
2022/06/01 10:37:36;;;;;;;32.50;9.20;;;;;;;31.98;34.68;99345.83;25058;1315;3055596;-63
2022/06/01 10:40:15;;;;;;;29.40;8.60;;;;;;;32.19;33.67;99341.48;25074;1315;3054461;-62
2022/06/01 10:45:45;;;;;;;37.10;8.50;;;;;;;32.22;33.25;99341.16;25049;1315;3051081;-63
2022/06/01 10:48:40;;;;;;;33.60;9.40;;;;;;;32.17;32.99;99344.64;25112;1313;3055425;-63
2022/06/01 10:51:12;;;;;;;37.60;9.70;;;;;;;32.27;33.83;99341.82;25112;1315;3054997;-64
2022/06/01 10:53:50;;;;;;;32.10;8.90;;;;;;;32.32;34.52;99340.58;25151;1315;3028421;-63
2022/06/01 10:56:20;;;;;;;27.60;9.00;;;;;;;32.45;34.22;99337.53;25048;1316;3051729;-62
2022/06/01 10:58:49;;;;;;;46.20;9.50;;;;;;;32.51;34.35;99338.37;25053;1315;3028271;-62
2022/06/01 11:01:46;;;;;;;30.50;9.20;;;;;;;32.60;34.23;99333.38;25080;1318;3026158;-61
2022/06/01 11:04:39;;;;;;;42.20;9.80;;;;;;;32.63;34.28;99332.83;25128;1318;3053364;-63
2022/06/01 11:07:40;;;;;;;38.50;9.30;;;;;;;32.71;34.46;99330.11;25057;1315;3056127;-61
2022/06/01 11:10:24;;;;;;;36.80;9.00;;;;;;;32.78;34.30;99328.67;25046;1315;3054341;-62
2022/06/01 11:13:24;;;;;;;31.30;9.90;;;;;;;32.86;34.11;99324.98;25063;1315;3071898;-60
2022/06/01 11:15:59;;;;;;;41.50;11.50;;;;;;;33.04;33.56;99329.34;25055;1315;3049402;-64
2022/06/01 11:18:43;;;;;;;43.70;10.90;;;;;;;33.18;33.56;99333.02;25104;1313;3054394;-62
2022/06/01 11:21:21;;;;;;;36.30;9.10;;;;;;;33.30;32.48;99331.09;25130;1313;3056126;-62
2022/06/01 11:24:45;;;;;;;40.20;8.90;;;;;;;33.39;32.22;99331.98;25114;1313;3058499;-65
2022/06/01 11:27:42;;;;;;;33.10;8.70;;;;;;;33.44;32.16;99331.13;25080;1313;3052921;-62
2022/06/01 11:30:18;;;;;;;31.40;9.00;;;;;;;33.59;31.85;99333.62;25042;1315;3055938;-65
2022/06/01 11:32:57;;;;;;;31.40;8.50;;;;;;;33.65;32.22;99329.61;25741;1313;3052209;-64
2022/06/01 11:35:40;;;;;;;33.80;9.20;;;;;;;33.74;32.12;99330.64;25497;1315;3069369;-62
2022/06/01 11:38:19;;;;;;;33.20;7.90;;;;;;;33.85;31.62;99331.69;25065;1315;3051824;-62
2022/06/01 11:41:03;;;;;;;34.60;8.30;;;;;;;33.90;31.71;99334.17;25128;1315;3053577;-63
2022/06/01 11:43:41;;;;;;;40.60;9.30;;;;;;;34.02;31.73;99332.20;25106;1313;3052506;-64
2022/06/01 11:46:22;;;;;;;29.80;8.80;;;;;;;34.02;31.74;99335.10;25155;1313;3056878;-63
2022/06/01 11:49:02;;;;;;;31.70;8.70;;;;;;;34.13;31.33;99330.73;25025;1313;3049350;-63
2022/06/01 11:51:37;;;;;;;32.70;8.50;;;;;;;34.33;30.88;99336.02;25092;1315;3053861;-63
2022/06/01 11:54:11;;;;;;;27.30;8.50;;;;;;;34.38;31.19;99333.09;25091;1313;3054097;-62
2022/06/01 11:56:49;;;;;;;31.90;8.20;;;;;;;34.43;31.51;99329.06;25009;1315;3068583;-62
2022/06/01 11:59:27;;;;;;;28.10;8.40;;;;;;;34.48;31.82;99325.63;25046;1313;3051547;-63
2022/06/01 12:02:40;;;;;;;32.80;9.00;;;;;;;34.45;32.02;99328.48;25108;1315;3055049;-62
2022/06/01 12:05:30;;;;;;;36.10;8.60;;;;;;;34.38;32.07;99327.48;25100;1314;3055133;-63